sensor_id;sensor_type;location;lat;lon;timestamp;pressure;altitude;pressure_sealevel;temperature
67509;BMP280;54354;44.724;11.284;2023-05-02T00:01:44;101148.25;;;15.80
67509;BMP280;54354;44.724;11.284;2023-05-02T00:04:09;101140.09;;;15.84
67509;BMP280;54354;44.724;11.284;2023-05-02T00:06:35;101146.94;;;15.85
67509;BMP280;54354;44.724;11.284;2023-05-02T00:09:02;101138.91;;;15.85
67509;BMP280;54354;44.724;11.284;2023-05-02T00:11:27;101134.75;;;15.84
67509;BMP280;54354;44.724;11.284;2023-05-02T00:13:53;101133.38;;;15.79
67509;BMP280;54354;44.724;11.284;2023-05-02T00:16:18;101135.09;;;15.73
67509;BMP280;54354;44.724;11.284;2023-05-02T00:18:44;101119.91;;;15.70
67509;BMP280;54354;44.724;11.284;2023-05-02T00:21:09;101125.25;;;15.70
67509;BMP280;54354;44.724;11.284;2023-05-02T00:23:35;101117.59;;;15.72
67509;BMP280;54354;44.724;11.284;2023-05-02T00:26:01;101122.38;;;15.77
67509;BMP280;54354;44.724;11.284;2023-05-02T00:28:26;101110.19;;;15.76
67509;BMP280;54354;44.724;11.284;2023-05-02T00:30:52;101107.09;;;15.78
67509;BMP280;54354;44.724;11.284;2023-05-02T00:33:18;101100.72;;;15.75
67509;BMP280;54354;44.724;11.284;2023-05-02T00:35:43;101099.84;;;15.78
67509;BMP280;54354;44.724;11.284;2023-05-02T00:38:09;101097.19;;;15.78
67509;BMP280;54354;44.724;11.284;2023-05-02T00:40:48;101090.03;;;15.75
67509;BMP280;54354;44.724;11.284;2023-05-02T00:43:14;101078.47;;;15.78
67509;BMP280;54354;44.724;11.284;2023-05-02T00:45:41;101080.41;;;15.78
67509;BMP280;54354;44.724;11.284;2023-05-02T00:48:09;101083.81;;;15.78
67509;BMP280;54354;44.724;11.284;2023-05-02T00:50:39;101074.19;;;15.81
67509;BMP280;54354;44.724;11.284;2023-05-02T00:53:07;101069.94;;;15.83
67509;BMP280;54354;44.724;11.284;2023-05-02T00:55:33;101072.25;;;15.81
67509;BMP280;54354;44.724;11.284;2023-05-02T00:58:03;101063.06;;;15.82
67509;BMP280;54354;44.724;11.284;2023-05-02T01:03:49;101064.44;;;15.87
67509;BMP280;54354;44.724;11.284;2023-05-02T01:12:00;101067.06;;;15.78
67509;BMP280;54354;44.724;11.284;2023-05-02T01:14:32;101069.19;;;15.83
67509;BMP280;54354;44.724;11.284;2023-05-02T01:17:02;101063.50;;;15.81
67509;BMP280;54354;44.724;11.284;2023-05-02T01:19:32;101062.22;;;15.85
67509;BMP280;54354;44.724;11.284;2023-05-02T01:22:03;101061.78;;;15.87
67509;BMP280;54354;44.724;11.284;2023-05-02T01:29:57;101056.19;;;15.94
67509;BMP280;54354;44.724;11.284;2023-05-02T01:32:26;101053.22;;;15.92
67509;BMP280;54354;44.724;11.284;2023-05-02T01:34:53;101053.22;;;15.92
67509;BMP280;54354;44.724;11.284;2023-05-02T01:37:21;101052.50;;;15.91
67509;BMP280;54354;44.724;11.284;2023-05-02T01:39:48;101049.38;;;15.93
67509;BMP280;54354;44.724;11.284;2023-05-02T01:42:15;101050.13;;;15.93
67509;BMP280;54354;44.724;11.284;2023-05-02T01:44:43;101045.22;;;15.92
67509;BMP280;54354;44.724;11.284;2023-05-02T01:47:11;101045.22;;;15.92
67509;BMP280;54354;44.724;11.284;2023-05-02T01:49:37;101055.91;;;15.92
67509;BMP280;54354;44.724;11.284;2023-05-02T01:52:06;101047.16;;;15.91
67509;BMP280;54354;44.724;11.284;2023-05-02T01:54:35;101056.34;;;15.90
67509;BMP280;54354;44.724;11.284;2023-05-02T01:57:01;101061.22;;;15.92
67509;BMP280;54354;44.724;11.284;2023-05-02T01:59:31;101049.06;;;15.91
67509;BMP280;54354;44.724;11.284;2023-05-02T02:02:00;101048.00;;;15.88
67509;BMP280;54354;44.724;11.284;2023-05-02T02:04:27;101062.53;;;15.87
67509;BMP280;54354;44.724;11.284;2023-05-02T02:07:01;101051.84;;;15.87
67509;BMP280;54354;44.724;11.284;2023-05-02T02:09:29;101053.06;;;15.86
67509;BMP280;54354;44.724;11.284;2023-05-02T02:14:24;101050.06;;;15.84
67509;BMP280;54354;44.724;11.284;2023-05-02T02:16:54;101046.97;;;15.86
67509;BMP280;54354;44.724;11.284;2023-05-02T02:19:21;101045.75;;;15.87
67509;BMP280;54354;44.724;11.284;2023-05-02T02:21:48;101049.63;;;15.86
67509;BMP280;54354;44.724;11.284;2023-05-02T02:24:17;101043.97;;;15.84
67509;BMP280;54354;44.724;11.284;2023-05-02T02:26:45;101046.97;;;15.86
67509;BMP280;54354;44.724;11.284;2023-05-02T02:29:11;101048.13;;;15.85
67509;BMP280;54354;44.724;11.284;2023-05-02T02:31:36;101051.22;;;15.83
67509;BMP280;54354;44.724;11.284;2023-05-02T02:34:04;101046.31;;;15.82
67509;BMP280;54354;44.724;11.284;2023-05-02T02:36:44;101043.34;;;15.80
67509;BMP280;54354;44.724;11.284;2023-05-02T02:42:08;101048.22;;;15.81
67509;BMP280;54354;44.724;11.284;2023-05-02T02:47:49;101040.22;;;15.81
67509;BMP280;54354;44.724;11.284;2023-05-02T02:53:04;101042.16;;;15.81
67509;BMP280;54354;44.724;11.284;2023-05-02T02:58:20;101054.03;;;15.80
67509;BMP280;54354;44.724;11.284;2023-05-02T03:00:52;101056.97;;;15.82
67509;BMP280;54354;44.724;11.284;2023-05-02T03:03:19;101048.69;;;15.80
67509;BMP280;54354;44.724;11.284;2023-05-02T03:05:47;101043.75;;;15.78
67509;BMP280;54354;44.724;11.284;2023-05-02T03:08:13;101056.38;;;15.78
67509;BMP280;54354;44.724;11.284;2023-05-02T03:10:39;101057.56;;;15.77
67509;BMP280;54354;44.724;11.284;2023-05-02T03:13:06;101054.13;;;15.76
67509;BMP280;54354;44.724;11.284;2023-05-02T03:18:17;101054.59;;;15.75
67509;BMP280;54354;44.724;11.284;2023-05-02T03:20:44;101065.25;;;15.75
67509;BMP280;54354;44.724;11.284;2023-05-02T03:23:09;101054.59;;;15.75
67509;BMP280;54354;44.724;11.284;2023-05-02T03:25:35;101061.84;;;15.74
67509;BMP280;54354;44.724;11.284;2023-05-02T03:28:01;101052.75;;;15.72
67509;BMP280;54354;44.724;11.284;2023-05-02T03:30:28;101051.72;;;15.69
67509;BMP280;54354;44.724;11.284;2023-05-02T03:32:53;101050.50;;;15.70
67509;BMP280;54354;44.724;11.284;2023-05-02T03:35:19;101065.81;;;15.70
67509;BMP280;54354;44.724;11.284;2023-05-02T03:37:47;101058.22;;;15.68
67509;BMP280;54354;44.724;11.284;2023-05-02T03:40:13;101055.13;;;15.70
67509;BMP280;54354;44.724;11.284;2023-05-02T03:42:40;101054.69;;;15.71
67509;BMP280;54354;44.724;11.284;2023-05-02T03:45:16;101068.78;;;15.72
67509;BMP280;54354;44.724;11.284;2023-05-02T03:47:43;101065.81;;;15.70
67509;BMP280;54354;44.724;11.284;2023-05-02T03:50:09;101063.56;;;15.68
67509;BMP280;54354;44.724;11.284;2023-05-02T03:52:35;101064.72;;;15.67
67509;BMP280;54354;44.724;11.284;2023-05-02T03:55:01;101062.06;;;15.67
67509;BMP280;54354;44.724;11.284;2023-05-02T03:57:29;101064.41;;;15.65
67509;BMP280;54354;44.724;11.284;2023-05-02T03:59:55;101070.06;;;15.67
67509;BMP280;54354;44.724;11.284;2023-05-02T04:02:25;101067.41;;;15.67
67509;BMP280;54354;44.724;11.284;2023-05-02T04:04:51;101081.94;;;15.66
67509;BMP280;54354;44.724;11.284;2023-05-02T04:07:19;101082.47;;;15.61
67509;BMP280;54354;44.724;11.284;2023-05-02T04:09:51;101078.00;;;15.58
67509;BMP280;54354;44.724;11.284;2023-05-02T04:12:17;101085.25;;;15.57
67509;BMP280;54354;44.724;11.284;2023-05-02T04:14:46;101086.44;;;15.56
67509;BMP280;54354;44.724;11.284;2023-05-02T04:17:13;101095.19;;;15.57
67509;BMP280;54354;44.724;11.284;2023-05-02T04:19:44;101096.69;;;15.58
67509;BMP280;54354;44.724;11.284;2023-05-02T04:22:10;101097.75;;;15.60
67509;BMP280;54354;44.724;11.284;2023-05-02T04:24:41;101099.66;;;15.60
67509;BMP280;54354;44.724;11.284;2023-05-02T04:27:06;101105.34;;;15.62
67509;BMP280;54354;44.724;11.284;2023-05-02T04:29:33;101103.81;;;15.61
67509;BMP280;54354;44.724;11.284;2023-05-02T04:31:59;101107.56;;;15.63
67509;BMP280;54354;44.724;11.284;2023-05-02T04:34:27;101108.31;;;15.64
67509;BMP280;54354;44.724;11.284;2023-05-02T04:36:53;101108.22;;;15.68
67509;BMP280;54354;44.724;11.284;2023-05-02T04:39:21;101111.50;;;15.72
67509;BMP280;54354;44.724;11.284;2023-05-02T04:41:58;101113.00;;;15.73
67509;BMP280;54354;44.724;11.284;2023-05-02T04:44:26;101111.50;;;15.72
67509;BMP280;54354;44.724;11.284;2023-05-02T04:46:53;101130.94;;;15.72
67509;BMP280;54354;44.724;11.284;2023-05-02T04:49:18;101120.25;;;15.72
67509;BMP280;54354;44.724;11.284;2023-05-02T04:51:44;101129.00;;;15.73
67509;BMP280;54354;44.724;11.284;2023-05-02T04:54:11;101124.41;;;15.73
67509;BMP280;54354;44.724;11.284;2023-05-02T04:56:38;101128.88;;;15.76
67509;BMP280;54354;44.724;11.284;2023-05-02T04:59:05;101133.06;;;15.77
67509;BMP280;54354;44.724;11.284;2023-05-02T05:01:31;101137.97;;;15.79
67509;BMP280;54354;44.724;11.284;2023-05-02T05:03:58;101137.97;;;15.79
67509;BMP280;54354;44.724;11.284;2023-05-02T05:06:23;101143.63;;;15.81
67509;BMP280;54354;44.724;11.284;2023-05-02T05:08:51;101149.28;;;15.83
67509;BMP280;54354;44.724;11.284;2023-05-02T05:11:16;101147.38;;;15.83
67509;BMP280;54354;44.724;11.284;2023-05-02T05:13:42;101160.28;;;15.85
67509;BMP280;54354;44.724;11.284;2023-05-02T05:16:09;101157.91;;;15.87
67509;BMP280;54354;44.724;11.284;2023-05-02T05:18:34;101170.88;;;15.88
67509;BMP280;54354;44.724;11.284;2023-05-02T05:21:06;101172.34;;;15.89
67509;BMP280;54354;44.724;11.284;2023-05-02T05:23:32;101175.78;;;15.90
67509;BMP280;54354;44.724;11.284;2023-05-02T05:26:13;101182.59;;;15.91
67509;BMP280;54354;44.724;11.284;2023-05-02T05:28:43;101185.91;;;15.95
67509;BMP280;54354;44.724;11.284;2023-05-02T05:31:11;101182.50;;;15.94
67509;BMP280;54354;44.724;11.284;2023-05-02T05:33:39;101191.66;;;15.93
67509;BMP280;54354;44.724;11.284;2023-05-02T05:36:08;101194.97;;;15.98
67509;BMP280;54354;44.724;11.284;2023-05-02T05:38:35;101200.31;;;15.98
67509;BMP280;54354;44.724;11.284;2023-05-02T05:41:02;101199.88;;;15.99
67509;BMP280;54354;44.724;11.284;2023-05-02T05:43:29;101210.16;;;16.01
67509;BMP280;54354;44.724;11.284;2023-05-02T05:45:56;101216.25;;;16.01
67509;BMP280;54354;44.724;11.284;2023-05-02T05:48:22;101213.56;;;16.01
67509;BMP280;54354;44.724;11.284;2023-05-02T05:50:48;101217.41;;;16.00
67509;BMP280;54354;44.724;11.284;2023-05-02T05:53:14;101221.16;;;16.03
67509;BMP280;54354;44.724;11.284;2023-05-02T05:55:41;101226.50;;;16.03
67509;BMP280;54354;44.724;11.284;2023-05-02T05:58:07;101213.13;;;16.03
67509;BMP280;54354;44.724;11.284;2023-05-02T06:00:35;101232.56;;;16.03
67509;BMP280;54354;44.724;11.284;2023-05-02T06:03:01;101235.69;;;16.02
67509;BMP280;54354;44.724;11.284;2023-05-02T06:05:30;101237.28;;;15.99
67509;BMP280;54354;44.724;11.284;2023-05-02T06:07:56;101234.59;;;15.99
67509;BMP280;54354;44.724;11.284;2023-05-02T06:10:22;101246.78;;;16.00
67509;BMP280;54354;44.724;11.284;2023-05-02T06:12:48;101236.88;;;16.01
67509;BMP280;54354;44.724;11.284;2023-05-02T06:15:15;101242.53;;;16.03
67509;BMP280;54354;44.724;11.284;2023-05-02T06:17:41;101251.25;;;16.03
67509;BMP280;54354;44.724;11.284;2023-05-02T06:20:08;101239.09;;;16.02
67509;BMP280;54354;44.724;11.284;2023-05-02T06:22:34;101249.78;;;16.02
67509;BMP280;54354;44.724;11.284;2023-05-02T06:25:00;101241.03;;;16.02
67509;BMP280;54354;44.724;11.284;2023-05-02T06:27:26;101251.72;;;16.02
67509;BMP280;54354;44.724;11.284;2023-05-02T06:29:52;101255.88;;;16.03
67509;BMP280;54354;44.724;11.284;2023-05-02T06:32:18;101253.94;;;16.03
67509;BMP280;54354;44.724;11.284;2023-05-02T06:34:43;101259.19;;;16.07
67509;BMP280;54354;44.724;11.284;2023-05-02T06:37:09;101259.94;;;16.07
67509;BMP280;54354;44.724;11.284;2023-05-02T06:39:35;101263.38;;;16.08
67509;BMP280;54354;44.724;11.284;2023-05-02T06:42:01;101265.69;;;16.06
67509;BMP280;54354;44.724;11.284;2023-05-02T06:44:27;101267.50;;;16.09
67509;BMP280;54354;44.724;11.284;2023-05-02T06:46:53;101267.84;;;16.11
67509;BMP280;54354;44.724;11.284;2023-05-02T06:49:22;101271.25;;;16.11
67509;BMP280;54354;44.724;11.284;2023-05-02T06:51:48;101264.41;;;16.10
67509;BMP280;54354;44.724;11.284;2023-05-02T06:54:14;101265.91;;;16.11
67509;BMP280;54354;44.724;11.284;2023-05-02T06:56:40;101272.44;;;16.10
67509;BMP280;54354;44.724;11.284;2023-05-02T06:59:06;101265.59;;;16.09
67509;BMP280;54354;44.724;11.284;2023-05-02T07:01:31;101275.44;;;16.12
67509;BMP280;54354;44.724;11.284;2023-05-02T07:03:57;101279.59;;;16.13
67509;BMP280;54354;44.724;11.284;2023-05-02T07:06:23;101289.94;;;16.11
67509;BMP280;54354;44.724;11.284;2023-05-02T07:08:48;101286.53;;;16.11
67509;BMP280;54354;44.724;11.284;2023-05-02T07:11:14;101288.03;;;16.12
67509;BMP280;54354;44.724;11.284;2023-05-02T07:13:40;101280.44;;;16.10
67509;BMP280;54354;44.724;11.284;2023-05-02T07:16:06;101278.53;;;16.11
67509;BMP280;54354;44.724;11.284;2023-05-02T07:18:31;101278.97;;;16.09
67509;BMP280;54354;44.724;11.284;2023-05-02T07:20:57;101279.25;;;16.11
67509;BMP280;54354;44.724;11.284;2023-05-02T07:23:22;101277.66;;;16.14
67509;BMP280;54354;44.724;11.284;2023-05-02T07:25:48;101287.16;;;16.15
67509;BMP280;54354;44.724;11.284;2023-05-02T07:28:14;101286.41;;;16.14
67509;BMP280;54354;44.724;11.284;2023-05-02T07:30:39;101285.56;;;16.17
67509;BMP280;54354;44.724;11.284;2023-05-02T07:33:05;101297.78;;;16.18
67509;BMP280;54354;44.724;11.284;2023-05-02T07:35:31;101288.53;;;16.19
67509;BMP280;54354;44.724;11.284;2023-05-02T07:37:57;101291.56;;;16.21
67509;BMP280;54354;44.724;11.284;2023-05-02T07:40:22;101302.25;;;16.21
67509;BMP280;54354;44.724;11.284;2023-05-02T07:42:48;101298.69;;;16.25
67509;BMP280;54354;44.724;11.284;2023-05-02T07:45:15;101293.78;;;16.23
67509;BMP280;54354;44.724;11.284;2023-05-02T07:47:40;101312.38;;;16.27
67509;BMP280;54354;44.724;11.284;2023-05-02T07:50:06;101298.47;;;16.32
67509;BMP280;54354;44.724;11.284;2023-05-02T07:52:32;101305.22;;;16.36
67509;BMP280;54354;44.724;11.284;2023-05-02T07:54:57;101316.66;;;16.37
67509;BMP280;54354;44.724;11.284;2023-05-02T07:57:23;101313.22;;;16.36
67509;BMP280;54354;44.724;11.284;2023-05-02T07:59:48;101304.91;;;16.34
67509;BMP280;54354;44.724;11.284;2023-05-02T08:02:14;101323.16;;;16.36
67509;BMP280;54354;44.724;11.284;2023-05-02T08:04:42;101324.66;;;16.37
67509;BMP280;54354;44.724;11.284;2023-05-02T08:07:07;101329.16;;;16.40
67509;BMP280;54354;44.724;11.284;2023-05-02T08:09:33;101322.94;;;16.43
67509;BMP280;54354;44.724;11.284;2023-05-02T08:11:58;101336.72;;;16.41
67509;BMP280;54354;44.724;11.284;2023-05-02T08:14:26;101332.25;;;16.38
67509;BMP280;54354;44.724;11.284;2023-05-02T08:16:52;101331.38;;;16.41
67509;BMP280;54354;44.724;11.284;2023-05-02T08:19:17;101341.22;;;16.44
67509;BMP280;54354;44.724;11.284;2023-05-02T08:21:43;101324.19;;;16.51
67509;BMP280;54354;44.724;11.284;2023-05-02T08:24:08;101333.41;;;16.50
67509;BMP280;54354;44.724;11.284;2023-05-02T08:26:34;101331.78;;;16.53
67509;BMP280;54354;44.724;11.284;2023-05-02T08:28:59;101326.34;;;16.56
67509;BMP280;54354;44.724;11.284;2023-05-02T08:31:25;101330.06;;;16.59
67509;BMP280;54354;44.724;11.284;2023-05-02T08:33:52;101325.06;;;16.61
67509;BMP280;54354;44.724;11.284;2023-05-02T08:36:17;101335.75;;;16.61
67509;BMP280;54354;44.724;11.284;2023-05-02T08:38:44;101339.88;;;16.62
67509;BMP280;54354;44.724;11.284;2023-05-02T08:41:14;101337.09;;;16.65
67509;BMP280;54354;44.724;11.284;2023-05-02T08:43:41;101336.38;;;16.65
67509;BMP280;54354;44.724;11.284;2023-05-02T08:46:09;101342.16;;;16.63
67509;BMP280;54354;44.724;11.284;2023-05-02T08:48:36;101347.91;;;16.62
67509;BMP280;54354;44.724;11.284;2023-05-02T08:51:02;101344.19;;;16.59
67509;BMP280;54354;44.724;11.284;2023-05-02T08:53:33;101341.50;;;16.59
67509;BMP280;54354;44.724;11.284;2023-05-02T08:55:59;101354.75;;;16.63
67509;BMP280;54354;44.724;11.284;2023-05-02T08:58:25;101359.69;;;16.64
67509;BMP280;54354;44.724;11.284;2023-05-02T09:00:51;101356.56;;;16.66
67509;BMP280;54354;44.724;11.284;2023-05-02T09:03:26;101366.53;;;16.65
67509;BMP280;54354;44.724;11.284;2023-05-02T09:08:31;101367.16;;;16.69
67509;BMP280;54354;44.724;11.284;2023-05-02T09:10:56;101364.38;;;16.73
67509;BMP280;54354;44.724;11.284;2023-05-02T09:13:44;101368.97;;;16.72
67509;BMP280;54354;44.724;11.284;2023-05-02T09:16:18;101370.34;;;16.77
67509;BMP280;54354;44.724;11.284;2023-05-02T09:19:02;101373.34;;;16.79
67509;BMP280;54354;44.724;11.284;2023-05-02T09:21:38;101388.19;;;16.80
67509;BMP280;54354;44.724;11.284;2023-05-02T09:24:20;101380.50;;;16.82
67509;BMP280;54354;44.724;11.284;2023-05-02T09:27:04;101382.97;;;16.76
67509;BMP280;54354;44.724;11.284;2023-05-02T09:29:31;101387.59;;;16.76
67509;BMP280;54354;44.724;11.284;2023-05-02T09:32:03;101396.34;;;16.76
67509;BMP280;54354;44.724;11.284;2023-05-02T09:34:28;101391.31;;;16.79
67509;BMP280;54354;44.724;11.284;2023-05-02T09:36:55;101392.81;;;16.80
67509;BMP280;54354;44.724;11.284;2023-05-02T09:39:25;101400.09;;;16.79
67509;BMP280;54354;44.724;11.284;2023-05-02T09:41:51;101397.75;;;16.81
67509;BMP280;54354;44.724;11.284;2023-05-02T09:44:21;101401.91;;;16.82
67509;BMP280;54354;44.724;11.284;2023-05-02T09:46:51;101395.81;;;16.82
67509;BMP280;54354;44.724;11.284;2023-05-02T09:49:43;101408.84;;;16.80
67509;BMP280;54354;44.724;11.284;2023-05-02T09:52:13;101401.16;;;16.82
67509;BMP280;54354;44.724;11.284;2023-05-02T09:54:40;101399.53;;;16.84
67509;BMP280;54354;44.724;11.284;2023-05-02T09:57:06;101405.63;;;16.85
67509;BMP280;54354;44.724;11.284;2023-05-02T09:59:32;101410.66;;;16.83
67509;BMP280;54354;44.724;11.284;2023-05-02T10:02:00;101402.53;;;16.86
67509;BMP280;54354;44.724;11.284;2023-05-02T10:04:27;101401.38;;;16.87
67509;BMP280;54354;44.724;11.284;2023-05-02T10:06:53;101412.34;;;16.89
67509;BMP280;54354;44.724;11.284;2023-05-02T10:09:20;101398.44;;;16.94
67509;BMP280;54354;44.724;11.284;2023-05-02T10:11:48;101402.94;;;16.97
67509;BMP280;54354;44.724;11.284;2023-05-02T10:14:15;101405.28;;;16.95
67509;BMP280;54354;44.724;11.284;2023-05-02T10:16:59;101397.25;;;16.95
67509;BMP280;54354;44.724;11.284;2023-05-02T10:19:35;101408.59;;;16.99
67509;BMP280;54354;44.724;11.284;2023-05-02T10:22:02;101412.75;;;17.00
67509;BMP280;54354;44.724;11.284;2023-05-02T10:24:31;101404.31;;;17.02
67509;BMP280;54354;44.724;11.284;2023-05-02T10:26:57;101411.88;;;17.03
67509;BMP280;54354;44.724;11.284;2023-05-02T10:29:23;101409.66;;;17.02
67509;BMP280;54354;44.724;11.284;2023-05-02T10:31:49;101421.97;;;16.99
67509;BMP280;54354;44.724;11.284;2023-05-02T10:34:17;101422.38;;;16.98
67509;BMP280;54354;44.724;11.284;2023-05-02T10:36:43;101412.56;;;16.95
67509;BMP280;54354;44.724;11.284;2023-05-02T10:39:08;101420.56;;;16.95
67509;BMP280;54354;44.724;11.284;2023-05-02T10:41:34;101415.66;;;16.93
67509;BMP280;54354;44.724;11.284;2023-05-02T10:44:01;101423.06;;;16.89
67509;BMP280;54354;44.724;11.284;2023-05-02T10:49:07;101427.66;;;16.89
67509;BMP280;54354;44.724;11.284;2023-05-02T10:51:34;101424.97;;;16.89
67509;BMP280;54354;44.724;11.284;2023-05-02T10:57:10;101438.50;;;16.85
67509;BMP280;54354;44.724;11.284;2023-05-02T10:59:42;101431.34;;;16.82
67509;BMP280;54354;44.724;11.284;2023-05-02T11:07:27;101439.97;;;16.86
67509;BMP280;54354;44.724;11.284;2023-05-02T11:12:43;101444.88;;;16.88
67509;BMP280;54354;44.724;11.284;2023-05-02T11:18:07;101445.88;;;16.81
67509;BMP280;54354;44.724;11.284;2023-05-02T11:20:39;101433.66;;;16.80
67509;BMP280;54354;44.724;11.284;2023-05-02T11:25:57;101445.00;;;16.84
67509;BMP280;54354;44.724;11.284;2023-05-02T11:28:41;101446.91;;;16.84
67509;BMP280;54354;44.724;11.284;2023-05-02T11:34:09;101450.69;;;16.86
67509;BMP280;54354;44.724;11.284;2023-05-02T11:36:35;101449.06;;;16.89
67509;BMP280;54354;44.724;11.284;2023-05-02T11:39:02;101454.41;;;16.89
67509;BMP280;54354;44.724;11.284;2023-05-02T11:41:39;101458.28;;;16.88
67509;BMP280;54354;44.724;11.284;2023-05-02T11:44:05;101460.41;;;16.93
67509;BMP280;54354;44.724;11.284;2023-05-02T11:46:30;101464.56;;;16.94
67509;BMP280;54354;44.724;11.284;2023-05-02T11:48:56;101462.63;;;16.94
67509;BMP280;54354;44.724;11.284;2023-05-02T11:51:22;101464.91;;;16.96
67509;BMP280;54354;44.724;11.284;2023-05-02T11:53:48;101458.78;;;16.95
67509;BMP280;54354;44.724;11.284;2023-05-02T11:56:13;101466.50;;;16.93
67509;BMP280;54354;44.724;11.284;2023-05-02T11:58:40;101467.59;;;16.96
67509;BMP280;54354;44.724;11.284;2023-05-02T12:01:13;101472.50;;;16.97
67509;BMP280;54354;44.724;11.284;2023-05-02T12:03:38;101475.03;;;17.01
67509;BMP280;54354;44.724;11.284;2023-05-02T12:06:12;101476.97;;;17.00
67509;BMP280;54354;44.724;11.284;2023-05-02T12:08:39;101480.00;;;17.02
67509;BMP280;54354;44.724;11.284;2023-05-02T12:11:04;101476.00;;;17.07
67509;BMP280;54354;44.724;11.284;2023-05-02T12:13:31;101486.91;;;17.13
67509;BMP280;54354;44.724;11.284;2023-05-02T12:15:57;101485.63;;;17.17
67509;BMP280;54354;44.724;11.284;2023-05-02T12:18:24;101482.06;;;17.20
67509;BMP280;54354;44.724;11.284;2023-05-02T12:20:54;101484.00;;;17.20
67509;BMP280;54354;44.724;11.284;2023-05-02T12:23:22;101477.81;;;17.23
67509;BMP280;54354;44.724;11.284;2023-05-02T12:25:48;101488.78;;;17.25
67509;BMP280;54354;44.724;11.284;2023-05-02T12:28:16;101479.91;;;17.28
67509;BMP280;54354;44.724;11.284;2023-05-02T12:30:45;101482.03;;;17.33
67509;BMP280;54354;44.724;11.284;2023-05-02T12:33:11;101490.88;;;17.43
67509;BMP280;54354;44.724;11.284;2023-05-02T12:35:36;101488.06;;;17.46
67509;BMP280;54354;44.724;11.284;2023-05-02T12:38:09;101491.25;;;17.54
67509;BMP280;54354;44.724;11.284;2023-05-02T12:40:35;101494.03;;;17.63
67509;BMP280;54354;44.724;11.284;2023-05-02T12:43:03;101483.31;;;17.63
67509;BMP280;54354;44.724;11.284;2023-05-02T12:45:29;101493.13;;;17.66
67509;BMP280;54354;44.724;11.284;2023-05-02T12:48:02;101498.16;;;17.64
67509;BMP280;54354;44.724;11.284;2023-05-02T12:50:41;101499.69;;;17.65
67509;BMP280;54354;44.724;11.284;2023-05-02T12:53:07;101487.78;;;17.66
67509;BMP280;54354;44.724;11.284;2023-05-02T12:55:33;101498.94;;;17.65
67509;BMP280;54354;44.724;11.284;2023-05-02T12:58:03;101497.88;;;17.62
67509;BMP280;54354;44.724;11.284;2023-05-02T13:00:30;101498.63;;;17.63
67509;BMP280;54354;44.724;11.284;2023-05-02T13:02:57;101490.91;;;17.65
67509;BMP280;54354;44.724;11.284;2023-05-02T13:05:22;101495.94;;;17.63
67509;BMP280;54354;44.724;11.284;2023-05-02T13:07:48;101500.22;;;17.60
67509;BMP280;54354;44.724;11.284;2023-05-02T13:10:13;101494.88;;;17.60
67509;BMP280;54354;44.724;11.284;2023-05-02T13:12:42;101512.44;;;17.61
67509;BMP280;54354;44.724;11.284;2023-05-02T13:15:08;101503.66;;;17.60
67509;BMP280;54354;44.724;11.284;2023-05-02T13:17:34;101514.50;;;17.57
67509;BMP280;54354;44.724;11.284;2023-05-02T13:20:00;101501.13;;;17.57
67509;BMP280;54354;44.724;11.284;2023-05-02T13:22:26;101508.06;;;17.54
67509;BMP280;54354;44.724;11.284;2023-05-02T13:24:52;101516.84;;;17.55
67509;BMP280;54354;44.724;11.284;2023-05-02T13:27:18;101510.00;;;17.54
67509;BMP280;54354;44.724;11.284;2023-05-02T13:29:44;101508.06;;;17.54
67509;BMP280;54354;44.724;11.284;2023-05-02T13:32:10;101504.97;;;17.56
67509;BMP280;54354;44.724;11.284;2023-05-02T13:34:36;101523.72;;;17.56
67509;BMP280;54354;44.724;11.284;2023-05-02T13:37:02;101513.00;;;17.56
67509;BMP280;54354;44.724;11.284;2023-05-02T13:39:27;101511.22;;;17.53
67509;BMP280;54354;44.724;11.284;2023-05-02T13:41:53;101511.63;;;17.51
67509;BMP280;54354;44.724;11.284;2023-05-02T13:44:18;101515.69;;;17.56
67509;BMP280;54354;44.724;11.284;2023-05-02T13:46:44;101510.81;;;17.64
67509;BMP280;54354;44.724;11.284;2023-05-02T13:49:10;101515.00;;;17.65
67509;BMP280;54354;44.724;11.284;2023-05-02T13:51:35;101505.78;;;17.66
67509;BMP280;54354;44.724;11.284;2023-05-02T13:54:01;101504.59;;;17.67
67509;BMP280;54354;44.724;11.284;2023-05-02T13:56:27;101516.06;;;17.67
67509;BMP280;54354;44.724;11.284;2023-05-02T13:58:52;101508.31;;;17.69
67509;BMP280;54354;44.724;11.284;2023-05-02T14:01:18;101510.16;;;17.72
67509;BMP280;54354;44.724;11.284;2023-05-02T14:03:43;101508.22;;;17.73
67509;BMP280;54354;44.724;11.284;2023-05-02T14:06:09;101513.56;;;17.73
67509;BMP280;54354;44.724;11.284;2023-05-02T14:08:34;101506.13;;;17.68
67509;BMP280;54354;44.724;11.284;2023-05-02T14:11:00;101509.75;;;17.61
67509;BMP280;54354;44.724;11.284;2023-05-02T14:13:26;101521.66;;;17.60
67509;BMP280;54354;44.724;11.284;2023-05-02T14:15:52;101521.53;;;17.64
67509;BMP280;54354;44.724;11.284;2023-05-02T14:18:18;101515.13;;;17.61
67509;BMP280;54354;44.724;11.284;2023-05-02T14:20:44;101523.59;;;17.59
67509;BMP280;54354;44.724;11.284;2023-05-02T14:23:10;101520.59;;;17.57
67509;BMP280;54354;44.724;11.284;2023-05-02T14:25:35;101521.34;;;17.58
67509;BMP280;54354;44.724;11.284;2023-05-02T14:28:02;101521.66;;;17.60
67509;BMP280;54354;44.724;11.284;2023-05-02T14:30:47;101520.47;;;17.61
67509;BMP280;54354;44.724;11.284;2023-05-02T14:33:16;101524.66;;;17.62
67509;BMP280;54354;44.724;11.284;2023-05-02T14:35:42;101524.78;;;17.58
67509;BMP280;54354;44.724;11.284;2023-05-02T14:38:07;101531.00;;;17.55
67509;BMP280;54354;44.724;11.284;2023-05-02T14:40:33;101527.56;;;17.55
67509;BMP280;54354;44.724;11.284;2023-05-02T14:42:59;101523.72;;;17.56